createdAt,value
2022-12-03T00:00:20.107Z,55.80
2022-12-03T00:10:20.101Z,82.00
2022-12-03T00:20:20.176Z,61.80
2022-12-03T00:30:20.103Z,51.80
2022-12-03T00:40:20.135Z,52.70
2022-12-03T00:50:20.086Z,48.60
2022-12-03T01:00:20.077Z,57.70
2022-12-03T01:10:20.157Z,71.50
2022-12-03T01:20:20.100Z,74.80
2022-12-03T01:30:20.140Z,63.90
2022-12-03T01:40:20.145Z,62.90
2022-12-03T01:50:20.148Z,62.70
2022-12-03T02:00:20.136Z,57.00
2022-12-03T02:10:20.130Z,60.00
2022-12-03T02:20:20.139Z,51.60
2022-12-03T02:30:20.150Z,57.40
2022-12-03T02:40:20.120Z,47.30
2022-12-03T02:50:20.139Z,53.20
2022-12-03T03:00:20.127Z,49.10
2022-12-03T03:10:20.128Z,38.10
2022-12-03T03:20:20.141Z,41.70
2022-12-03T03:30:20.156Z,48.00
2022-12-03T03:40:20.147Z,55.10
2022-12-03T03:50:20.142Z,54.70
2022-12-03T04:00:20.145Z,56.90
2022-12-03T04:10:20.164Z,54.30
2022-12-03T04:20:20.187Z,46.40
2022-12-03T04:30:20.174Z,57.30
2022-12-03T04:40:20.172Z,61.40
2022-12-03T04:50:20.166Z,61.50
2022-12-03T05:00:20.177Z,60.30
2022-12-03T05:10:20.285Z,61.50
2022-12-03T05:20:20.175Z,64.00
2022-12-03T05:30:20.163Z,57.40
2022-12-03T05:40:20.188Z,46.20
2022-12-03T05:50:20.183Z,55.20
2022-12-03T06:00:20.306Z,51.60
2022-12-03T06:10:20.206Z,47.80
2022-12-03T06:20:20.204Z,55.70
2022-12-03T06:30:20.216Z,48.00
2022-12-03T06:40:20.194Z,44.70
2022-12-03T06:50:20.185Z,48.50
2022-12-03T07:00:20.180Z,47.30
2022-12-03T07:10:20.215Z,42.40
2022-12-03T07:20:20.212Z,46.70
2022-12-03T07:30:20.255Z,57.40
2022-12-03T07:40:20.227Z,43.80
2022-12-03T07:50:20.327Z,54.60
2022-12-03T08:00:20.234Z,50.10
2022-12-03T08:10:20.218Z,52.10
2022-12-03T08:20:20.241Z,46.60
2022-12-03T08:30:20.262Z,51.80
2022-12-03T08:40:20.257Z,53.00
2022-12-03T08:50:20.236Z,69.20
2022-12-03T09:00:20.211Z,59.60
2022-12-03T09:20:20.274Z,59.50
2022-12-03T09:30:20.265Z,60.80
2022-12-03T09:40:20.279Z,63.20
2022-12-03T09:50:20.291Z,72.50
2022-12-03T10:00:20.244Z,56.60
2022-12-03T10:10:20.337Z,53.70
2022-12-03T10:20:20.264Z,51.70
2022-12-03T10:30:20.289Z,64.00
2022-12-03T10:40:20.266Z,65.40
2022-12-03T10:50:20.286Z,61.00
2022-12-03T11:00:20.374Z,65.60
2022-12-03T11:10:20.325Z,56.20
2022-12-03T11:20:22.732Z,64.50
2022-12-03T11:30:20.297Z,69.60
2022-12-03T11:40:20.306Z,69.50
2022-12-03T11:50:20.298Z,68.00
2022-12-03T12:00:20.309Z,72.40
2022-12-03T12:10:20.381Z,68.40
2022-12-03T12:20:20.317Z,65.60
2022-12-03T12:30:20.293Z,74.70
2022-12-03T12:40:20.309Z,71.30
2022-12-03T12:50:20.304Z,71.40
2022-12-03T13:00:20.319Z,48.30
2022-12-03T13:10:20.309Z,76.90
2022-12-03T13:20:20.336Z,129.10
2022-12-03T13:30:20.316Z,83.30
2022-12-03T13:40:20.339Z,80.80
2022-12-03T13:50:20.412Z,87.80
2022-12-03T14:00:20.346Z,88.30
2022-12-03T14:10:20.407Z,87.80
2022-12-03T14:20:20.324Z,80.50
2022-12-03T14:30:20.376Z,91.60
2022-12-03T14:40:21.893Z,92.80
2022-12-03T14:50:20.337Z,90.20
2022-12-03T15:00:20.328Z,94.90
2022-12-03T15:10:20.383Z,96.30
2022-12-03T15:20:20.392Z,99.20
2022-12-03T15:30:20.374Z,100.70
2022-12-03T15:40:20.358Z,97.70
2022-12-03T15:50:20.382Z,87.90
2022-12-03T16:00:20.358Z,96.90
2022-12-03T16:10:20.388Z,101.30
2022-12-03T16:20:20.457Z,99.90
2022-12-03T16:30:20.369Z,104.70
2022-12-03T16:40:20.366Z,92.00
2022-12-03T16:50:27.596Z,105.00
2022-12-03T17:00:20.409Z,111.20
2022-12-03T17:10:20.466Z,129.10
2022-12-03T17:20:20.400Z,139.20
2022-12-03T17:30:20.388Z,117.70
2022-12-03T17:40:20.414Z,124.20
2022-12-03T17:50:20.398Z,111.70
2022-12-03T18:00:20.435Z,122.60
2022-12-03T18:10:20.442Z,130.70
2022-12-03T18:20:20.429Z,123.50
2022-12-03T18:30:20.437Z,123.50
2022-12-03T18:40:20.435Z,132.60
2022-12-03T18:50:20.434Z,114.40
2022-12-03T19:00:20.438Z,125.90
2022-12-03T19:10:20.437Z,110.70
2022-12-03T19:20:20.434Z,113.90
2022-12-03T19:30:20.501Z,118.60
2022-12-03T19:40:20.431Z,117.80
2022-12-03T19:50:23.376Z,108.00
2022-12-03T20:00:20.527Z,102.20
2022-12-03T20:10:20.502Z,110.20
2022-12-03T20:20:20.473Z,99.10
2022-12-03T20:30:20.501Z,100.40
2022-12-03T20:40:20.518Z,99.80
2022-12-03T20:50:20.494Z,98.70
2022-12-03T21:00:20.517Z,113.20
2022-12-03T21:10:20.512Z,115.10
2022-12-03T21:20:21.316Z,104.20
2022-12-03T21:30:20.472Z,119.00
2022-12-03T21:40:20.491Z,105.60
2022-12-03T21:50:20.517Z,116.30
2022-12-03T22:00:20.564Z,102.40
2022-12-03T22:10:20.506Z,105.70
2022-12-03T23:00:20.525Z,102.90
2022-12-03T23:10:20.592Z,108.80
2022-12-03T23:20:20.499Z,94.10
2022-12-03T23:30:20.499Z,112.50
2022-12-03T23:40:20.495Z,107.00
2022-12-03T23:50:20.611Z,112.80
